createdAt,value
2023-02-09T00:00:07.809Z,41.50
2023-02-09T00:02:40.264Z,37.50
2023-02-09T00:05:08.607Z,36.25
2023-02-09T00:07:36.021Z,37.00
2023-02-09T00:10:04.066Z,37.00
2023-02-09T00:12:49.279Z,40.00
2023-02-09T00:15:16.042Z,38.50
2023-02-09T00:17:43.273Z,43.50
2023-02-09T00:20:10.722Z,40.50
2023-02-09T00:22:37.425Z,40.50
2023-02-09T00:25:04.605Z,43.00
2023-02-09T00:27:32.424Z,42.00
2023-02-09T00:29:59.213Z,44.75
2023-02-09T00:32:26.070Z,42.50
2023-02-09T00:34:52.990Z,37.75
2023-02-09T00:37:20.481Z,55.75
2023-02-09T00:39:47.336Z,33.00
2023-02-09T00:42:14.122Z,46.00
2023-02-09T00:44:41.981Z,43.00
2023-02-09T00:47:09.886Z,73.25
2023-02-09T00:49:37.238Z,36.25
2023-02-09T00:52:04.206Z,34.00
2023-02-09T00:54:31.778Z,46.50
2023-02-09T00:57:05.137Z,47.00
2023-02-09T00:59:34.717Z,49.50
2023-02-09T01:02:03.169Z,61.50
2023-02-09T01:04:30.030Z,37.50
2023-02-09T01:06:57.049Z,40.00
2023-02-09T01:09:24.420Z,41.50
2023-02-09T01:11:51.365Z,41.00
2023-02-09T01:14:18.243Z,38.50
2023-02-09T01:16:45.100Z,36.00
2023-02-09T01:19:13.804Z,34.50
2023-02-09T01:21:40.907Z,32.50
2023-02-09T01:24:12.057Z,36.00
2023-02-09T01:26:38.948Z,39.25
2023-02-09T01:29:05.759Z,43.25
2023-02-09T01:31:35.893Z,41.00
2023-02-09T01:34:04.527Z,40.50
2023-02-09T01:36:32.852Z,46.00
2023-02-09T01:39:01.712Z,42.00
2023-02-09T01:41:29.041Z,38.75
2023-02-09T01:43:58.470Z,35.25
2023-02-09T01:46:27.663Z,32.00
2023-02-09T01:49:05.168Z,35.50
2023-02-09T01:51:38.188Z,25.00
2023-02-09T01:54:12.403Z,29.50
2023-02-09T01:56:42.922Z,29.75
2023-02-09T01:59:10.815Z,26.50
2023-02-09T02:01:38.568Z,39.00
2023-02-09T02:04:06.183Z,29.00
2023-02-09T02:06:33.306Z,33.50
2023-02-09T02:09:04.832Z,34.00
2023-02-09T02:11:33.000Z,27.25
2023-02-09T02:13:59.759Z,22.50
2023-02-09T02:16:34.699Z,25.50
2023-02-09T02:19:25.851Z,30.00
2023-02-09T02:22:31.382Z,27.50
2023-02-09T02:25:06.767Z,27.50
2023-02-09T02:28:01.315Z,36.50
2023-02-09T02:30:40.222Z,37.50
2023-02-09T02:33:15.671Z,30.50
2023-02-09T02:36:25.572Z,30.25
2023-02-09T02:39:09.093Z,29.00
2023-02-09T02:42:00.024Z,26.00
2023-02-09T02:44:29.973Z,31.00
2023-02-09T02:47:05.732Z,30.00
2023-02-09T02:49:35.506Z,30.00
2023-02-09T02:52:06.799Z,20.00
2023-02-09T02:54:38.558Z,30.00
2023-02-09T02:57:14.763Z,28.50
2023-02-09T02:59:52.247Z,38.00
2023-02-09T03:02:24.603Z,24.50
2023-02-09T03:04:55.484Z,26.00
2023-02-09T03:07:22.440Z,23.50
2023-02-09T03:09:54.837Z,30.00
2023-02-09T03:12:33.496Z,28.00
2023-02-09T03:15:44.836Z,25.50
2023-02-09T03:18:23.647Z,23.00
2023-02-09T03:21:16.295Z,18.00
2023-02-09T03:23:57.678Z,23.00
2023-02-09T03:26:40.050Z,25.00
2023-02-09T03:29:09.239Z,30.00
2023-02-09T03:31:37.617Z,26.00
2023-02-09T03:34:06.061Z,26.00
2023-02-09T03:36:38.595Z,29.00
2023-02-09T03:39:05.614Z,32.00
2023-02-09T03:41:32.555Z,27.00
2023-02-09T03:44:17.710Z,27.25
2023-02-09T03:46:44.545Z,30.00
2023-02-09T03:49:14.833Z,21.50
2023-02-09T03:51:42.767Z,25.00
2023-02-09T03:54:09.538Z,33.75
2023-02-09T03:56:37.976Z,29.50
2023-02-09T03:59:05.812Z,32.50
2023-02-09T04:01:35.334Z,30.00
2023-02-09T04:04:03.230Z,22.50
2023-02-09T04:06:31.978Z,28.00
2023-02-09T04:08:59.760Z,33.00
2023-02-09T04:11:27.102Z,22.50
2023-02-09T04:13:53.903Z,30.00
2023-02-09T04:16:20.869Z,33.75
2023-02-09T04:18:47.801Z,29.50
2023-02-09T04:21:14.564Z,35.00
2023-02-09T04:23:41.573Z,33.50
2023-02-09T04:26:08.760Z,32.00
2023-02-09T04:28:35.514Z,25.50
2023-02-09T04:31:02.282Z,30.00
2023-02-09T04:33:29.129Z,23.50
2023-02-09T04:35:57.001Z,36.00
2023-02-09T04:38:24.137Z,30.00
2023-02-09T04:40:53.111Z,26.00
2023-02-09T04:43:20.329Z,34.00
2023-02-09T04:45:47.380Z,30.25
2023-02-09T04:48:16.957Z,30.00
2023-02-09T04:50:44.356Z,31.00
2023-02-09T04:53:11.574Z,32.50
2023-02-09T04:55:39.924Z,28.00
2023-02-09T04:58:25.523Z,24.25
2023-02-09T05:00:55.732Z,27.00
2023-02-09T05:03:24.746Z,31.00
2023-02-09T05:06:00.885Z,22.50
2023-02-09T05:08:28.125Z,30.00
2023-02-09T05:10:55.554Z,31.25
2023-02-09T05:13:23.540Z,29.50
2023-02-09T05:15:50.548Z,33.00
2023-02-09T05:18:17.501Z,33.75
2023-02-09T05:20:45.474Z,30.25
2023-02-09T05:23:13.384Z,33.00
2023-02-09T05:25:40.240Z,36.00
2023-02-09T05:28:07.302Z,33.75
2023-02-09T05:30:34.851Z,29.00
2023-02-09T05:33:03.136Z,35.50
2023-02-09T05:35:29.968Z,39.25
2023-02-09T05:37:56.751Z,33.00
2023-02-09T05:40:23.759Z,42.25
2023-02-09T05:42:50.693Z,36.75
2023-02-09T05:45:17.579Z,45.00
2023-02-09T05:47:44.458Z,37.00
2023-02-09T05:50:11.293Z,36.00
2023-02-09T05:52:38.056Z,32.75
2023-02-09T05:55:05.050Z,45.00
2023-02-09T05:57:31.898Z,37.50
2023-02-09T05:59:58.643Z,31.50
2023-02-09T06:02:26.145Z,35.00
2023-02-09T06:04:53.415Z,30.00
2023-02-09T06:07:20.256Z,30.00
2023-02-09T06:09:47.110Z,46.00
2023-02-09T06:12:13.846Z,36.50
2023-02-09T06:14:40.613Z,32.50
2023-02-09T06:17:07.509Z,34.00
2023-02-09T06:19:34.289Z,40.00
2023-02-09T06:22:01.156Z,134.00
2023-02-09T06:24:27.968Z,31.00
2023-02-09T06:26:56.350Z,33.00
2023-02-09T06:29:23.119Z,39.00
2023-02-09T06:31:50.187Z,33.25
2023-02-09T06:34:17.054Z,39.00
2023-02-09T06:36:43.866Z,37.25
2023-02-09T06:39:11.167Z,58.00
2023-02-09T06:41:38.007Z,22.00
2023-02-09T06:44:05.129Z,32.00
2023-02-09T06:46:31.932Z,36.00
2023-02-09T06:48:59.585Z,48.25
2023-02-09T06:51:26.704Z,50.00
2023-02-09T06:53:53.954Z,42.00
2023-02-09T06:56:20.773Z,50.25
2023-02-09T06:58:47.719Z,42.25
2023-02-09T07:01:16.181Z,42.25
2023-02-09T07:03:43.907Z,45.50
2023-02-09T07:06:15.014Z,51.25
2023-02-09T07:08:42.844Z,39.00
2023-02-09T07:11:12.260Z,36.50
2023-02-09T07:13:39.322Z,42.75
2023-02-09T07:16:08.791Z,38.00
2023-02-09T07:18:35.899Z,42.00
2023-02-09T07:21:05.571Z,49.50
2023-02-09T07:23:32.679Z,47.50
2023-02-09T07:26:04.600Z,49.50
2023-02-09T07:28:31.891Z,56.00
2023-02-09T07:31:03.830Z,58.00
2023-02-09T07:33:30.697Z,51.50
2023-02-09T07:35:57.703Z,43.50
2023-02-09T07:38:24.619Z,46.25
2023-02-09T07:40:51.432Z,55.00
2023-02-09T07:43:18.222Z,49.50
2023-02-09T07:45:45.157Z,39.50
2023-02-09T07:48:12.400Z,37.00
2023-02-09T07:50:39.546Z,40.25
2023-02-09T07:53:06.431Z,27.25
2023-02-09T07:55:33.198Z,26.25
2023-02-09T07:58:00.165Z,22.75
2023-02-09T08:00:27.015Z,26.25
2023-02-09T08:02:54.847Z,28.25
2023-02-09T08:05:33.509Z,19.75
2023-02-09T08:08:01.111Z,21.50
2023-02-09T08:10:28.113Z,26.50
2023-02-09T08:13:00.899Z,31.75
2023-02-09T08:15:55.482Z,25.00
2023-02-09T08:18:28.149Z,28.00
2023-02-09T08:20:55.278Z,33.75
2023-02-09T08:23:30.925Z,43.25
2023-02-09T08:26:00.274Z,20.00
2023-02-09T08:28:41.827Z,31.25
2023-02-09T08:31:14.861Z,21.50
2023-02-09T08:33:42.420Z,41.00
2023-02-09T08:36:10.766Z,22.00
2023-02-09T08:38:37.552Z,32.50
2023-02-09T08:41:06.029Z,35.75
2023-02-09T08:43:32.887Z,41.75
2023-02-09T08:46:08.058Z,28.75
2023-02-09T08:48:37.655Z,27.75
2023-02-09T08:51:05.721Z,32.00
2023-02-09T08:53:32.798Z,27.00
2023-02-09T08:55:59.736Z,29.00
2023-02-09T08:58:27.004Z,31.25
2023-02-09T09:00:57.591Z,27.75
2023-02-09T09:03:30.062Z,29.25
2023-02-09T09:06:07.247Z,27.75
2023-02-09T09:08:35.721Z,24.00
2023-02-09T09:11:02.717Z,30.75
2023-02-09T09:13:29.893Z,27.00
2023-02-09T09:15:56.767Z,24.25
2023-02-09T09:18:25.130Z,28.25
2023-02-09T09:20:52.830Z,31.00
2023-02-09T09:23:21.235Z,29.75
2023-02-09T09:25:48.496Z,24.00
2023-02-09T09:28:15.957Z,31.00
2023-02-09T09:30:42.787Z,25.25
2023-02-09T09:33:09.588Z,28.25
2023-02-09T09:35:36.449Z,40.25
2023-02-09T09:38:03.210Z,27.25
2023-02-09T09:40:33.329Z,35.50
2023-02-09T09:43:04.798Z,28.25
2023-02-09T09:45:35.349Z,25.75
2023-02-09T09:48:02.823Z,28.25
2023-02-09T09:50:38.701Z,30.75
2023-02-09T09:53:18.175Z,30.00
2023-02-09T09:55:46.237Z,28.25
2023-02-09T09:58:18.398Z,17.50
2023-02-09T10:00:45.620Z,27.00
2023-02-09T10:03:21.421Z,43.00
2023-02-09T10:05:51.564Z,26.50
2023-02-09T10:08:29.523Z,25.25
2023-02-09T10:11:11.416Z,26.50
2023-02-09T10:13:47.415Z,22.25
2023-02-09T10:16:26.724Z,27.25
2023-02-09T10:18:56.192Z,27.00
2023-02-09T10:21:30.175Z,21.00
2023-02-09T10:24:14.481Z,27.00
2023-02-09T10:26:43.025Z,31.25
2023-02-09T10:29:12.647Z,28.50
2023-02-09T10:31:43.415Z,30.50
2023-02-09T10:34:15.407Z,25.00
2023-02-09T10:36:53.406Z,21.00
2023-02-09T10:39:27.895Z,29.75
2023-02-09T10:41:57.006Z,32.00
2023-02-09T10:44:34.117Z,25.50
2023-02-09T10:47:24.194Z,23.00
2023-02-09T10:49:54.724Z,29.00
2023-02-09T10:52:24.525Z,29.00
2023-02-09T10:54:56.746Z,30.75
2023-02-09T10:57:28.036Z,32.75
2023-02-09T11:00:19.712Z,29.50
2023-02-09T11:02:52.382Z,32.00
2023-02-09T11:05:22.080Z,29.00
2023-02-09T11:08:16.153Z,37.25
2023-02-09T11:10:58.415Z,35.00
2023-02-09T11:13:27.063Z,23.00
2023-02-09T11:16:20.689Z,23.25
2023-02-09T11:18:57.677Z,33.25
2023-02-09T11:21:35.567Z,32.00
2023-02-09T11:24:10.683Z,32.00
2023-02-09T11:26:59.057Z,35.25
2023-02-09T11:29:40.948Z,32.00
2023-02-09T11:32:20.712Z,43.25
2023-02-09T11:34:47.465Z,17.50
2023-02-09T11:37:20.348Z,32.50
2023-02-09T11:40:05.144Z,31.00
2023-02-09T11:42:44.651Z,21.25
2023-02-09T11:45:28.476Z,20.25
2023-02-09T11:48:06.008Z,28.25
2023-02-09T11:50:54.559Z,24.75
2023-02-09T11:53:44.508Z,30.25
2023-02-09T11:56:14.311Z,33.50
2023-02-09T11:58:49.948Z,19.00
2023-02-09T12:01:27.758Z,25.00
2023-02-09T12:04:03.115Z,26.00
2023-02-09T12:06:37.072Z,20.25
2023-02-09T12:09:04.063Z,24.75
2023-02-09T12:11:39.795Z,29.50
2023-02-09T12:14:15.784Z,24.50
2023-02-09T12:16:49.995Z,27.25
2023-02-09T12:19:34.494Z,22.50
2023-02-09T12:22:43.439Z,26.75
2023-02-09T12:25:30.773Z,22.25
2023-02-09T12:28:09.654Z,22.00
2023-02-09T12:30:42.413Z,26.00
2023-02-09T12:33:24.584Z,22.00
2023-02-09T12:35:59.598Z,19.50
2023-02-09T12:38:40.879Z,21.00
2023-02-09T12:41:08.943Z,22.75
2023-02-09T12:43:37.858Z,20.75
2023-02-09T12:46:43.528Z,25.00
2023-02-09T12:49:17.835Z,20.75
2023-02-09T12:51:50.665Z,23.00
2023-02-09T12:54:45.245Z,23.00
2023-02-09T12:57:14.761Z,27.25
2023-02-09T12:59:51.036Z,20.50
2023-02-09T13:02:24.203Z,22.00
2023-02-09T13:05:12.026Z,21.25
2023-02-09T13:07:44.728Z,27.00
2023-02-09T13:10:35.731Z,24.00
2023-02-09T13:13:11.451Z,20.00
2023-02-09T13:16:06.034Z,20.25
2023-02-09T13:18:51.313Z,28.50
2023-02-09T13:21:29.772Z,20.75
2023-02-09T13:24:04.409Z,24.00
2023-02-09T13:26:33.259Z,30.25
2023-02-09T13:29:27.208Z,30.50
2023-02-09T13:32:18.680Z,27.00
2023-02-09T13:34:48.517Z,27.00
2023-02-09T13:37:33.417Z,27.00
2023-02-09T13:40:13.052Z,40.25
2023-02-09T13:42:53.481Z,26.00
2023-02-09T13:45:21.001Z,30.00
2023-02-09T13:47:47.940Z,30.00
2023-02-09T13:50:23.201Z,30.00
2023-02-09T13:52:51.076Z,27.75
2023-02-09T13:55:26.795Z,27.00
2023-02-09T13:58:00.308Z,30.50
2023-02-09T14:00:40.003Z,27.50
2023-02-09T14:03:13.803Z,31.25
2023-02-09T14:05:53.537Z,31.50
2023-02-09T14:08:22.365Z,32.00
2023-02-09T14:11:41.175Z,31.25
2023-02-09T14:14:26.111Z,30.25
2023-02-09T14:17:25.195Z,35.25
2023-02-09T14:19:54.037Z,32.00
2023-02-09T14:22:40.068Z,30.50
2023-02-09T14:25:15.544Z,32.25
2023-02-09T14:27:47.244Z,37.00
2023-02-09T14:30:23.327Z,29.50
2023-02-09T14:32:55.013Z,29.00
2023-02-09T14:35:33.146Z,34.50
2023-02-09T14:38:02.855Z,30.25
2023-02-09T14:40:34.355Z,32.50
2023-02-09T14:43:19.957Z,27.50
2023-02-09T14:45:49.447Z,30.25
2023-02-09T14:48:19.349Z,27.00
2023-02-09T14:50:48.261Z,29.00
2023-02-09T14:53:16.642Z,30.25
2023-02-09T14:55:44.694Z,32.50
2023-02-09T14:58:23.585Z,25.75
2023-02-09T15:00:52.108Z,30.25
2023-02-09T15:03:19.483Z,32.75
2023-02-09T15:05:51.224Z,32.00
2023-02-09T15:08:21.433Z,28.00
2023-02-09T15:10:55.290Z,23.25
2023-02-09T15:13:23.156Z,30.00
2023-02-09T15:15:50.066Z,29.25
2023-02-09T15:18:22.948Z,31.25
2023-02-09T15:20:50.653Z,31.50
2023-02-09T15:23:18.249Z,27.25
2023-02-09T15:25:45.757Z,33.25
2023-02-09T15:28:19.317Z,35.75
2023-02-09T15:30:49.308Z,31.75
2023-02-09T15:33:16.247Z,34.50
2023-02-09T15:35:43.052Z,38.25
2023-02-09T15:38:12.609Z,39.25
2023-02-09T15:41:06.549Z,41.75
2023-02-09T15:43:52.584Z,44.50
2023-02-09T15:46:22.150Z,45.50
2023-02-09T15:48:48.946Z,47.50
2023-02-09T15:51:16.873Z,48.50
2023-02-09T15:53:45.205Z,49.50
2023-02-09T15:56:13.830Z,45.00
2023-02-09T15:58:44.284Z,45.25
2023-02-09T16:01:17.082Z,48.50
2023-02-09T16:03:44.724Z,46.50
2023-02-09T16:06:16.508Z,48.50
2023-02-09T16:08:45.367Z,48.50
2023-02-09T16:11:26.833Z,56.50
2023-02-09T16:13:54.362Z,55.25
2023-02-09T16:16:21.227Z,46.25
2023-02-09T16:18:48.019Z,55.00
2023-02-09T16:21:30.355Z,53.25
2023-02-09T16:24:00.893Z,51.75
2023-02-09T16:26:29.137Z,89.25
2023-02-09T16:28:56.689Z,127.25
2023-02-09T16:31:24.069Z,139.00
2023-02-09T16:33:51.522Z,116.00
2023-02-09T16:36:22.129Z,144.50
2023-02-09T16:38:48.951Z,147.75
2023-02-09T16:41:35.934Z,128.50
2023-02-09T16:44:17.978Z,118.50
2023-02-09T16:46:49.159Z,114.00
2023-02-09T16:49:40.290Z,120.25
2023-02-09T16:52:21.640Z,112.00
2023-02-09T16:54:51.644Z,103.00
2023-02-09T16:57:23.491Z,121.00
2023-02-09T16:59:51.971Z,102.25
2023-02-09T17:02:35.739Z,112.50
2023-02-09T17:05:37.311Z,105.50
2023-02-09T17:08:22.060Z,77.00
2023-02-09T17:10:51.659Z,83.50
2023-02-09T17:13:20.785Z,76.00
2023-02-09T17:15:53.029Z,82.50
2023-02-09T17:18:24.443Z,92.50
2023-02-09T17:20:57.064Z,85.00
2023-02-09T17:23:26.471Z,81.25
2023-02-09T17:25:57.007Z,138.75
2023-02-09T17:28:25.698Z,122.50
2023-02-09T17:30:57.060Z,108.00
2023-02-09T17:33:26.955Z,104.75
2023-02-09T17:36:24.784Z,87.00
2023-02-09T17:38:44.901Z,77.00
2023-02-09T17:41:44.952Z,117.75
2023-02-09T17:44:34.911Z,102.25
2023-02-09T17:47:04.677Z,92.75
2023-02-09T17:49:32.271Z,119.25
2023-02-09T17:51:59.246Z,116.50
2023-02-09T17:54:27.793Z,77.50
2023-02-09T17:56:54.658Z,85.50
2023-02-09T17:59:21.597Z,101.50
2023-02-09T18:01:55.134Z,84.25
2023-02-09T18:04:26.893Z,98.50
2023-02-09T18:06:54.346Z,111.50
2023-02-09T18:09:22.315Z,102.00
2023-02-09T18:11:52.163Z,103.75
2023-02-09T18:14:21.191Z,91.50
2023-02-09T18:16:48.280Z,97.50
2023-02-09T18:19:16.070Z,94.00
2023-02-09T18:21:55.202Z,93.50
2023-02-09T18:24:23.858Z,87.50
2023-02-09T18:26:53.687Z,104.00
2023-02-09T18:29:23.647Z,78.75
2023-02-09T18:31:51.041Z,73.00
2023-02-09T18:34:18.332Z,70.25
2023-02-09T18:36:45.202Z,68.75
2023-02-09T18:39:11.987Z,67.50
2023-02-09T18:41:38.856Z,72.75
2023-02-09T18:44:05.638Z,68.00
2023-02-09T18:46:32.754Z,67.75
2023-02-09T18:49:00.842Z,69.50
2023-02-09T18:51:30.257Z,68.00
2023-02-09T18:53:58.038Z,55.00
2023-02-09T18:56:28.475Z,59.00
2023-02-09T18:58:55.476Z,49.00
2023-02-09T19:01:23.654Z,59.00
2023-02-09T19:03:52.195Z,53.00
2023-02-09T19:06:20.537Z,69.75
2023-02-09T19:08:48.816Z,66.75
2023-02-09T19:11:17.470Z,83.25
2023-02-09T19:14:04.366Z,65.00
2023-02-09T19:16:31.167Z,60.50
2023-02-09T19:18:58.642Z,60.25
2023-02-09T19:21:25.440Z,60.75
2023-02-09T19:23:53.979Z,58.00
2023-02-09T19:26:21.195Z,60.75
2023-02-09T19:28:48.525Z,60.00
2023-02-09T19:31:17.183Z,68.00
2023-02-09T19:33:44.229Z,60.75
2023-02-09T19:36:10.994Z,54.75
2023-02-09T19:38:37.765Z,61.00
2023-02-09T19:41:12.295Z,59.25
2023-02-09T19:43:39.988Z,59.75
2023-02-09T19:46:07.769Z,55.50
2023-02-09T19:48:34.643Z,56.25
2023-02-09T19:51:01.397Z,63.25
2023-02-09T19:53:28.292Z,54.00
2023-02-09T19:55:55.360Z,66.50
2023-02-09T19:58:22.571Z,64.00
2023-02-09T20:00:55.219Z,53.50
2023-02-09T20:03:23.039Z,52.00
2023-02-09T20:05:50.384Z,56.75
2023-02-09T20:08:19.362Z,55.00
2023-02-09T20:10:46.766Z,56.00
2023-02-09T20:13:15.681Z,55.75
2023-02-09T20:15:43.993Z,54.50
2023-02-09T20:18:12.680Z,50.50
2023-02-09T20:20:42.169Z,51.00
2023-02-09T20:23:09.420Z,54.50
2023-02-09T20:25:36.228Z,56.25
2023-02-09T20:28:03.500Z,57.75
2023-02-09T20:30:30.344Z,57.25
2023-02-09T20:32:57.205Z,67.50
2023-02-09T20:35:23.989Z,67.00
2023-02-09T20:37:52.853Z,58.50
2023-02-09T20:40:20.182Z,62.50
2023-02-09T20:43:05.465Z,67.00
2023-02-09T20:45:50.696Z,64.00
2023-02-09T20:48:17.535Z,51.75
2023-02-09T20:50:45.429Z,60.00
2023-02-09T20:53:12.672Z,63.75
2023-02-09T20:55:39.516Z,65.25
2023-02-09T20:58:06.417Z,66.00
2023-02-09T21:00:35.333Z,59.00
2023-02-09T21:03:02.133Z,54.75
2023-02-09T21:05:28.931Z,56.00
2023-02-09T21:07:55.774Z,49.50
2023-02-09T21:10:22.683Z,82.00
2023-02-09T21:12:49.479Z,69.75
2023-02-09T21:15:16.475Z,60.50
2023-02-09T21:17:48.031Z,60.25
2023-02-09T21:20:16.604Z,52.00
2023-02-09T21:22:43.752Z,52.00
2023-02-09T21:25:10.681Z,60.25
2023-02-09T21:27:38.137Z,48.75
2023-02-09T21:30:05.738Z,53.50
2023-02-09T21:32:34.946Z,49.00
2023-02-09T21:35:01.834Z,51.00
2023-02-09T21:37:32.301Z,52.00
2023-02-09T21:40:03.065Z,57.75
2023-02-09T21:42:31.451Z,68.50
2023-02-09T21:44:59.520Z,68.25
2023-02-09T21:47:28.225Z,79.75
2023-02-09T21:49:55.044Z,70.75
2023-02-09T21:52:21.986Z,64.00
2023-02-09T21:54:48.979Z,58.25
2023-02-09T21:57:15.842Z,54.00
2023-02-09T21:59:42.629Z,51.75
2023-02-09T22:02:14.775Z,60.00
2023-02-09T22:04:42.300Z,75.25
2023-02-09T22:07:10.239Z,72.50
2023-02-09T22:09:37.225Z,72.25
2023-02-09T22:12:04.982Z,64.50
2023-02-09T22:14:32.141Z,61.00
2023-02-09T22:16:59.252Z,58.00
2023-02-09T22:19:26.163Z,50.50
2023-02-09T22:21:52.994Z,45.75
2023-02-09T22:24:19.776Z,51.75
2023-02-09T22:26:47.288Z,46.00
2023-02-09T22:29:15.950Z,50.00
2023-02-09T22:31:43.730Z,46.00
2023-02-09T22:34:11.160Z,46.00
2023-02-09T22:36:38.052Z,47.50
2023-02-09T22:39:05.978Z,51.75
2023-02-09T22:41:32.909Z,55.75
2023-02-09T22:44:05.307Z,52.50
2023-02-09T22:46:37.840Z,54.00
2023-02-09T22:49:07.246Z,52.00
2023-02-09T22:51:35.771Z,49.50
2023-02-09T22:54:03.376Z,50.50
2023-02-09T22:56:31.161Z,54.00
2023-02-09T22:58:59.780Z,51.25
2023-02-09T23:01:27.359Z,52.00
2023-02-09T23:03:54.613Z,50.50
2023-02-09T23:06:27.028Z,47.00
2023-02-09T23:09:02.445Z,49.50
2023-02-09T23:11:30.916Z,43.00
2023-02-09T23:14:14.096Z,42.25
2023-02-09T23:16:42.799Z,42.75
2023-02-09T23:19:13.238Z,37.00
2023-02-09T23:21:43.529Z,44.00
2023-02-09T23:24:11.219Z,44.50
2023-02-09T23:26:38.720Z,48.25
2023-02-09T23:29:09.298Z,46.00
2023-02-09T23:31:36.623Z,46.00
2023-02-09T23:34:04.309Z,43.25
2023-02-09T23:36:32.925Z,42.25
2023-02-09T23:39:03.063Z,43.50
2023-02-09T23:41:30.313Z,45.75
2023-02-09T23:43:57.984Z,36.00
2023-02-09T23:46:28.578Z,42.25
2023-02-09T23:48:56.647Z,46.00
2023-02-09T23:51:34.657Z,46.00
2023-02-09T23:54:04.848Z,47.00
2023-02-09T23:56:36.968Z,45.00
2023-02-09T23:59:08.841Z,45.25
